Terminal Aerodrome Forecast
Issued by NWS Pocatello, ID

Home | Current Version | Previous Version | Text Only | Print | Product List | Glossary On
Versions: 1 2 3 4 5 6 7 8 9 10 11 12
798
FTUS45 KPIH 291120
TAFPIH
TAF
KPIH 291120Z 2912/3012 VRB06KT P6SM VCSH SCT100 BKN120
     FM291500 19012G21KT P6SM -SHRA VCTS BKN045CB
     FM300200 15010KT P6SM SCT050 BKN100=

USA.gov is the U.S. government's official web portal to all federal, state and local government web resources and services.